Terminal Aerodrome Forecast
Issued by NWS Twin Cities, MN

Home | Current Version | Previous Version | Graphics & Text | Print | Product List | Glossary On
Versions: 1 2 3 4 5 6 7 8 9 10 11 12 13 14 15 16 17 18 19 20 21 22
057
FTUS43 KMPX 220901 AAB
TAFEAU
TAF AMD
KEAU 220901Z 2209/2306 VRB03KT 4SM BR SKC
      TEMPO 2209/2212 1SM BR
     FM221200 07004KT P6SM SKC
     FM221800 25006KT P6SM SKC=

USA.gov is the U.S. government's official web portal to all federal, state and local government web resources and services.